sensor_id;sensor_type;location;lat;lon;timestamp;P1;durP1;ratioP1;P2;durP2;ratioP2
7116;SDS011;3600;48.568;7.870;2024-01-16T00:00:56;7.33;;;5.80;;
7116;SDS011;3600;48.568;7.870;2024-01-16T00:03:23;6.70;;;4.93;;
7116;SDS011;3600;48.568;7.870;2024-01-16T00:05:50;6.57;;;4.43;;
7116;SDS011;3600;48.568;7.870;2024-01-16T00:08:17;6.80;;;5.43;;
7116;SDS011;3600;48.568;7.870;2024-01-16T00:10:44;6.03;;;5.07;;
7116;SDS011;3600;48.568;7.870;2024-01-16T00:13:10;5.63;;;4.70;;
7116;SDS011;3600;48.568;7.870;2024-01-16T00:15:37;5.87;;;4.53;;
7116;SDS011;3600;48.568;7.870;2024-01-16T00:18:04;7.17;;;4.90;;
7116;SDS011;3600;48.568;7.870;2024-01-16T00:20:31;5.60;;;4.20;;
7116;SDS011;3600;48.568;7.870;2024-01-16T00:22:58;5.63;;;4.43;;
7116;SDS011;3600;48.568;7.870;2024-01-16T00:25:25;5.87;;;4.60;;
7116;SDS011;3600;48.568;7.870;2024-01-16T00:27:54;6.07;;;4.80;;
7116;SDS011;3600;48.568;7.870;2024-01-16T00:30:21;5.63;;;4.63;;
7116;SDS011;3600;48.568;7.870;2024-01-16T00:32:47;8.80;;;4.23;;
7116;SDS011;3600;48.568;7.870;2024-01-16T00:35:14;5.73;;;4.30;;
7116;SDS011;3600;48.568;7.870;2024-01-16T00:37:41;6.00;;;4.70;;
7116;SDS011;3600;48.568;7.870;2024-01-16T00:40:08;6.33;;;5.00;;
7116;SDS011;3600;48.568;7.870;2024-01-16T00:42:35;7.87;;;5.30;;
7116;SDS011;3600;48.568;7.870;2024-01-16T00:45:02;6.80;;;4.50;;
7116;SDS011;3600;48.568;7.870;2024-01-16T00:47:29;5.67;;;4.50;;
7116;SDS011;3600;48.568;7.870;2024-01-16T00:49:56;7.20;;;4.77;;
7116;SDS011;3600;48.568;7.870;2024-01-16T00:52:22;10.10;;;5.40;;
7116;SDS011;3600;48.568;7.870;2024-01-16T00:54:49;7.20;;;5.23;;
7116;SDS011;3600;48.568;7.870;2024-01-16T00:57:16;8.87;;;5.20;;
7116;SDS011;3600;48.568;7.870;2024-01-16T00:59:45;8.67;;;5.53;;
7116;SDS011;3600;48.568;7.870;2024-01-16T01:02:13;8.63;;;5.60;;
7116;SDS011;3600;48.568;7.870;2024-01-16T01:04:40;7.57;;;5.73;;
7116;SDS011;3600;48.568;7.870;2024-01-16T01:07:12;9.20;;;6.37;;
7116;SDS011;3600;48.568;7.870;2024-01-16T01:09:39;8.20;;;6.17;;
7116;SDS011;3600;48.568;7.870;2024-01-16T01:12:06;10.47;;;6.40;;
7116;SDS011;3600;48.568;7.870;2024-01-16T01:14:34;8.27;;;6.23;;
7116;SDS011;3600;48.568;7.870;2024-01-16T01:17:00;7.57;;;6.03;;
7116;SDS011;3600;48.568;7.870;2024-01-16T01:19:28;9.27;;;5.73;;
7116;SDS011;3600;48.568;7.870;2024-01-16T01:21:54;8.43;;;6.23;;
7116;SDS011;3600;48.568;7.870;2024-01-16T01:24:21;9.57;;;6.60;;
7116;SDS011;3600;48.568;7.870;2024-01-16T01:26:48;7.90;;;6.00;;
7116;SDS011;3600;48.568;7.870;2024-01-16T01:29:15;11.13;;;6.10;;
7116;SDS011;3600;48.568;7.870;2024-01-16T01:31:45;8.30;;;6.37;;
7116;SDS011;3600;48.568;7.870;2024-01-16T01:34:13;8.63;;;6.10;;
7116;SDS011;3600;48.568;7.870;2024-01-16T01:36:40;9.07;;;6.40;;
7116;SDS011;3600;48.568;7.870;2024-01-16T01:39:09;8.73;;;6.53;;
7116;SDS011;3600;48.568;7.870;2024-01-16T01:41:37;9.27;;;6.57;;
7116;SDS011;3600;48.568;7.870;2024-01-16T01:44:05;9.33;;;6.60;;
7116;SDS011;3600;48.568;7.870;2024-01-16T01:46:32;7.70;;;5.93;;
7116;SDS011;3600;48.568;7.870;2024-01-16T01:49:00;7.73;;;6.30;;
7116;SDS011;3600;48.568;7.870;2024-01-16T01:51:27;7.47;;;6.20;;
7116;SDS011;3600;48.568;7.870;2024-01-16T01:53:55;8.23;;;5.60;;
7116;SDS011;3600;48.568;7.870;2024-01-16T01:56:22;10.10;;;6.77;;
7116;SDS011;3600;48.568;7.870;2024-01-16T01:58:49;9.43;;;6.93;;
7116;SDS011;3600;48.568;7.870;2024-01-16T02:01:20;9.40;;;6.53;;
7116;SDS011;3600;48.568;7.870;2024-01-16T02:03:49;10.27;;;6.43;;
7116;SDS011;3600;48.568;7.870;2024-01-16T02:06:17;10.23;;;6.90;;
7116;SDS011;3600;48.568;7.870;2024-01-16T02:08:44;9.77;;;6.80;;
7116;SDS011;3600;48.568;7.870;2024-01-16T02:11:12;8.63;;;6.23;;
7116;SDS011;3600;48.568;7.870;2024-01-16T02:13:39;9.63;;;6.73;;
7116;SDS011;3600;48.568;7.870;2024-01-16T02:16:06;11.27;;;7.50;;
7116;SDS011;3600;48.568;7.870;2024-01-16T02:18:44;10.70;;;7.07;;
7116;SDS011;3600;48.568;7.870;2024-01-16T02:21:11;8.17;;;6.63;;
7116;SDS011;3600;48.568;7.870;2024-01-16T02:23:38;13.97;;;7.57;;
7116;SDS011;3600;48.568;7.870;2024-01-16T02:26:05;11.17;;;7.47;;
7116;SDS011;3600;48.568;7.870;2024-01-16T02:28:32;13.37;;;7.80;;
7116;SDS011;3600;48.568;7.870;2024-01-16T02:30:59;10.20;;;6.87;;
7116;SDS011;3600;48.568;7.870;2024-01-16T02:33:26;11.77;;;7.93;;
7116;SDS011;3600;48.568;7.870;2024-01-16T02:35:53;12.10;;;7.33;;
7116;SDS011;3600;48.568;7.870;2024-01-16T02:38:19;11.70;;;7.90;;
7116;SDS011;3600;48.568;7.870;2024-01-16T02:40:46;9.70;;;7.07;;
7116;SDS011;3600;48.568;7.870;2024-01-16T02:43:13;12.00;;;7.83;;
7116;SDS011;3600;48.568;7.870;2024-01-16T02:45:40;10.80;;;7.50;;
7116;SDS011;3600;48.568;7.870;2024-01-16T02:48:06;11.10;;;7.43;;
7116;SDS011;3600;48.568;7.870;2024-01-16T02:50:33;12.43;;;7.60;;
7116;SDS011;3600;48.568;7.870;2024-01-16T02:53:00;13.13;;;8.43;;
7116;SDS011;3600;48.568;7.870;2024-01-16T02:55:27;10.77;;;7.47;;
7116;SDS011;3600;48.568;7.870;2024-01-16T02:57:54;14.10;;;8.17;;
7116;SDS011;3600;48.568;7.870;2024-01-16T03:00:21;12.43;;;7.80;;
7116;SDS011;3600;48.568;7.870;2024-01-16T03:02:49;10.23;;;8.17;;
7116;SDS011;3600;48.568;7.870;2024-01-16T03:05:16;12.40;;;7.97;;
7116;SDS011;3600;48.568;7.870;2024-01-16T03:07:43;10.00;;;6.87;;
7116;SDS011;3600;48.568;7.870;2024-01-16T03:10:10;11.17;;;7.60;;
7116;SDS011;3600;48.568;7.870;2024-01-16T03:12:37;11.23;;;8.00;;
7116;SDS011;3600;48.568;7.870;2024-01-16T03:15:04;10.73;;;7.60;;
7116;SDS011;3600;48.568;7.870;2024-01-16T03:17:32;10.70;;;7.13;;
7116;SDS011;3600;48.568;7.870;2024-01-16T03:19:58;11.77;;;7.47;;
7116;SDS011;3600;48.568;7.870;2024-01-16T03:22:25;11.17;;;7.40;;
7116;SDS011;3600;48.568;7.870;2024-01-16T03:24:52;10.03;;;7.63;;
7116;SDS011;3600;48.568;7.870;2024-01-16T03:27:19;13.83;;;8.30;;
7116;SDS011;3600;48.568;7.870;2024-01-16T03:29:46;12.67;;;7.60;;
7116;SDS011;3600;48.568;7.870;2024-01-16T03:32:12;10.07;;;7.87;;
7116;SDS011;3600;48.568;7.870;2024-01-16T03:34:40;14.73;;;8.30;;
7116;SDS011;3600;48.568;7.870;2024-01-16T03:37:07;12.77;;;8.10;;
7116;SDS011;3600;48.568;7.870;2024-01-16T03:39:34;11.73;;;8.17;;
7116;SDS011;3600;48.568;7.870;2024-01-16T03:42:00;13.43;;;8.60;;
7116;SDS011;3600;48.568;7.870;2024-01-16T03:44:27;10.87;;;7.97;;
7116;SDS011;3600;48.568;7.870;2024-01-16T03:46:54;12.60;;;9.10;;
7116;SDS011;3600;48.568;7.870;2024-01-16T03:49:21;12.20;;;7.80;;
7116;SDS011;3600;48.568;7.870;2024-01-16T03:51:48;10.73;;;7.50;;
7116;SDS011;3600;48.568;7.870;2024-01-16T03:54:15;10.20;;;7.93;;
7116;SDS011;3600;48.568;7.870;2024-01-16T03:56:42;10.13;;;7.60;;
7116;SDS011;3600;48.568;7.870;2024-01-16T03:59:09;10.87;;;7.87;;
7116;SDS011;3600;48.568;7.870;2024-01-16T04:01:36;11.23;;;7.93;;
7116;SDS011;3600;48.568;7.870;2024-01-16T04:04:05;9.90;;;7.80;;
7116;SDS011;3600;48.568;7.870;2024-01-16T04:06:33;9.57;;;7.00;;
7116;SDS011;3600;48.568;7.870;2024-01-16T04:09:00;10.27;;;8.10;;
7116;SDS011;3600;48.568;7.870;2024-01-16T04:11:27;9.87;;;6.93;;
7116;SDS011;3600;48.568;7.870;2024-01-16T04:13:55;14.50;;;7.27;;
7116;SDS011;3600;48.568;7.870;2024-01-16T04:16:22;9.43;;;7.07;;
7116;SDS011;3600;48.568;7.870;2024-01-16T04:18:49;13.87;;;8.43;;
7116;SDS011;3600;48.568;7.870;2024-01-16T04:21:15;11.53;;;7.50;;
7116;SDS011;3600;48.568;7.870;2024-01-16T04:23:45;11.17;;;8.47;;
7116;SDS011;3600;48.568;7.870;2024-01-16T04:26:13;11.83;;;7.57;;
7116;SDS011;3600;48.568;7.870;2024-01-16T04:28:40;11.83;;;7.40;;
7116;SDS011;3600;48.568;7.870;2024-01-16T04:31:07;12.20;;;7.70;;
7116;SDS011;3600;48.568;7.870;2024-01-16T04:33:34;12.20;;;7.37;;
7116;SDS011;3600;48.568;7.870;2024-01-16T04:36:01;11.73;;;6.87;;
7116;SDS011;3600;48.568;7.870;2024-01-16T04:38:28;12.17;;;7.87;;
7116;SDS011;3600;48.568;7.870;2024-01-16T04:40:55;10.83;;;6.93;;
7116;SDS011;3600;48.568;7.870;2024-01-16T04:43:22;11.00;;;7.60;;
7116;SDS011;3600;48.568;7.870;2024-01-16T04:45:49;9.10;;;7.30;;
7116;SDS011;3600;48.568;7.870;2024-01-16T04:48:15;10.87;;;7.47;;
7116;SDS011;3600;48.568;7.870;2024-01-16T04:50:43;12.10;;;7.40;;
7116;SDS011;3600;48.568;7.870;2024-01-16T04:53:11;11.43;;;7.07;;
7116;SDS011;3600;48.568;7.870;2024-01-16T04:55:39;10.73;;;6.90;;
7116;SDS011;3600;48.568;7.870;2024-01-16T04:58:05;9.17;;;6.97;;
7116;SDS011;3600;48.568;7.870;2024-01-16T05:00:33;9.53;;;7.00;;
7116;SDS011;3600;48.568;7.870;2024-01-16T05:03:03;9.97;;;6.77;;
7116;SDS011;3600;48.568;7.870;2024-01-16T05:05:31;10.23;;;6.97;;
7116;SDS011;3600;48.568;7.870;2024-01-16T05:08:00;11.63;;;7.90;;
7116;SDS011;3600;48.568;7.870;2024-01-16T05:10:29;8.10;;;6.40;;
7116;SDS011;3600;48.568;7.870;2024-01-16T05:12:57;9.33;;;6.70;;
7116;SDS011;3600;48.568;7.870;2024-01-16T05:15:23;9.57;;;6.63;;
7116;SDS011;3600;48.568;7.870;2024-01-16T05:17:50;10.50;;;6.73;;
7116;SDS011;3600;48.568;7.870;2024-01-16T05:20:17;8.60;;;6.60;;
7116;SDS011;3600;48.568;7.870;2024-01-16T05:22:44;11.33;;;6.60;;
7116;SDS011;3600;48.568;7.870;2024-01-16T05:25:11;9.63;;;7.10;;
7116;SDS011;3600;48.568;7.870;2024-01-16T05:27:37;9.30;;;7.50;;
7116;SDS011;3600;48.568;7.870;2024-01-16T05:30:04;11.70;;;7.13;;
7116;SDS011;3600;48.568;7.870;2024-01-16T05:32:33;11.13;;;7.17;;
7116;SDS011;3600;48.568;7.870;2024-01-16T05:35:00;13.93;;;7.87;;
7116;SDS011;3600;48.568;7.870;2024-01-16T05:37:27;9.43;;;6.60;;
7116;SDS011;3600;48.568;7.870;2024-01-16T05:39:55;15.00;;;7.57;;
7116;SDS011;3600;48.568;7.870;2024-01-16T05:42:22;9.90;;;7.00;;
7116;SDS011;3600;48.568;7.870;2024-01-16T05:44:49;13.93;;;8.00;;
7116;SDS011;3600;48.568;7.870;2024-01-16T05:47:16;11.53;;;7.93;;
7116;SDS011;3600;48.568;7.870;2024-01-16T05:49:43;14.87;;;10.53;;
7116;SDS011;3600;48.568;7.870;2024-01-16T05:52:09;12.80;;;8.93;;
7116;SDS011;3600;48.568;7.870;2024-01-16T05:54:36;12.77;;;7.40;;
7116;SDS011;3600;48.568;7.870;2024-01-16T05:57:03;11.73;;;7.50;;
7116;SDS011;3600;48.568;7.870;2024-01-16T05:59:32;9.33;;;6.97;;
7116;SDS011;3600;48.568;7.870;2024-01-16T06:01:59;12.17;;;7.33;;
7116;SDS011;3600;48.568;7.870;2024-01-16T06:04:26;12.00;;;7.63;;
7116;SDS011;3600;48.568;7.870;2024-01-16T06:06:52;10.07;;;7.47;;
7116;SDS011;3600;48.568;7.870;2024-01-16T06:09:19;11.30;;;7.67;;
7116;SDS011;3600;48.568;7.870;2024-01-16T06:11:46;12.60;;;8.13;;
7116;SDS011;3600;48.568;7.870;2024-01-16T06:14:14;12.17;;;7.60;;
7116;SDS011;3600;48.568;7.870;2024-01-16T06:16:47;10.70;;;7.20;;
7116;SDS011;3600;48.568;7.870;2024-01-16T06:19:14;8.37;;;6.73;;
7116;SDS011;3600;48.568;7.870;2024-01-16T06:21:42;12.17;;;7.23;;
7116;SDS011;3600;48.568;7.870;2024-01-16T06:24:09;11.33;;;7.13;;
7116;SDS011;3600;48.568;7.870;2024-01-16T06:26:37;11.27;;;6.90;;
7116;SDS011;3600;48.568;7.870;2024-01-16T06:29:04;12.63;;;6.97;;
7116;SDS011;3600;48.568;7.870;2024-01-16T06:31:33;8.73;;;6.43;;
7116;SDS011;3600;48.568;7.870;2024-01-16T06:34:00;11.43;;;7.57;;
7116;SDS011;3600;48.568;7.870;2024-01-16T06:36:27;8.93;;;6.40;;
7116;SDS011;3600;48.568;7.870;2024-01-16T06:38:54;13.40;;;7.30;;
7116;SDS011;3600;48.568;7.870;2024-01-16T06:41:21;11.20;;;7.23;;
7116;SDS011;3600;48.568;7.870;2024-01-16T06:43:48;7.50;;;6.60;;
7116;SDS011;3600;48.568;7.870;2024-01-16T06:46:15;10.80;;;7.40;;
7116;SDS011;3600;48.568;7.870;2024-01-16T06:48:42;10.37;;;6.97;;
7116;SDS011;3600;48.568;7.870;2024-01-16T06:51:08;10.93;;;7.80;;
7116;SDS011;3600;48.568;7.870;2024-01-16T06:53:36;9.00;;;7.17;;
7116;SDS011;3600;48.568;7.870;2024-01-16T06:56:05;12.13;;;7.47;;
7116;SDS011;3600;48.568;7.870;2024-01-16T06:58:33;12.40;;;7.73;;
7116;SDS011;3600;48.568;7.870;2024-01-16T07:01:01;9.27;;;7.33;;
7116;SDS011;3600;48.568;7.870;2024-01-16T07:03:28;8.10;;;6.00;;
7116;SDS011;3600;48.568;7.870;2024-01-16T07:05:55;8.53;;;6.17;;
7116;SDS011;3600;48.568;7.870;2024-01-16T07:08:22;10.13;;;6.50;;
7116;SDS011;3600;48.568;7.870;2024-01-16T07:10:49;11.10;;;8.13;;
7116;SDS011;3600;48.568;7.870;2024-01-16T07:13:16;9.40;;;6.77;;
7116;SDS011;3600;48.568;7.870;2024-01-16T07:15:43;11.63;;;6.77;;
7116;SDS011;3600;48.568;7.870;2024-01-16T07:18:10;10.60;;;7.03;;
7116;SDS011;3600;48.568;7.870;2024-01-16T07:20:36;8.93;;;6.87;;
7116;SDS011;3600;48.568;7.870;2024-01-16T07:23:04;8.97;;;6.37;;
7116;SDS011;3600;48.568;7.870;2024-01-16T07:25:31;8.63;;;6.20;;
7116;SDS011;3600;48.568;7.870;2024-01-16T07:27:58;12.97;;;6.60;;
7116;SDS011;3600;48.568;7.870;2024-01-16T07:30:24;10.73;;;7.00;;
7116;SDS011;3600;48.568;7.870;2024-01-16T07:32:51;7.93;;;6.53;;
7116;SDS011;3600;48.568;7.870;2024-01-16T07:35:18;9.30;;;6.63;;
7116;SDS011;3600;48.568;7.870;2024-01-16T07:37:45;10.27;;;6.93;;
7116;SDS011;3600;48.568;7.870;2024-01-16T07:40:12;9.70;;;6.20;;
7116;SDS011;3600;48.568;7.870;2024-01-16T07:42:39;9.80;;;6.43;;
7116;SDS011;3600;48.568;7.870;2024-01-16T07:45:06;9.60;;;6.93;;
7116;SDS011;3600;48.568;7.870;2024-01-16T07:47:33;8.87;;;6.60;;
7116;SDS011;3600;48.568;7.870;2024-01-16T07:50:00;10.80;;;7.37;;
7116;SDS011;3600;48.568;7.870;2024-01-16T07:52:31;11.00;;;6.87;;
7116;SDS011;3600;48.568;7.870;2024-01-16T07:54:58;9.57;;;6.90;;
7116;SDS011;3600;48.568;7.870;2024-01-16T07:57:25;8.83;;;7.43;;
7116;SDS011;3600;48.568;7.870;2024-01-16T07:59:52;10.40;;;7.40;;
7116;SDS011;3600;48.568;7.870;2024-01-16T08:02:19;12.80;;;7.30;;
7116;SDS011;3600;48.568;7.870;2024-01-16T08:04:49;8.80;;;6.50;;
7116;SDS011;3600;48.568;7.870;2024-01-16T08:07:16;12.47;;;7.47;;
7116;SDS011;3600;48.568;7.870;2024-01-16T08:09:43;9.17;;;6.57;;
7116;SDS011;3600;48.568;7.870;2024-01-16T08:12:10;10.77;;;7.27;;
7116;SDS011;3600;48.568;7.870;2024-01-16T08:14:37;10.43;;;7.17;;
7116;SDS011;3600;48.568;7.870;2024-01-16T08:17:04;7.97;;;6.37;;
7116;SDS011;3600;48.568;7.870;2024-01-16T08:19:31;10.67;;;6.93;;
7116;SDS011;3600;48.568;7.870;2024-01-16T08:21:59;10.40;;;6.50;;
7116;SDS011;3600;48.568;7.870;2024-01-16T08:24:26;11.40;;;6.83;;
7116;SDS011;3600;48.568;7.870;2024-01-16T08:26:53;11.50;;;7.73;;
7116;SDS011;3600;48.568;7.870;2024-01-16T08:29:19;9.17;;;6.60;;
7116;SDS011;3600;48.568;7.870;2024-01-16T08:31:46;11.67;;;7.63;;
7116;SDS011;3600;48.568;7.870;2024-01-16T08:34:13;11.83;;;6.83;;
7116;SDS011;3600;48.568;7.870;2024-01-16T08:36:40;12.30;;;6.93;;
7116;SDS011;3600;48.568;7.870;2024-01-16T08:39:07;13.97;;;7.50;;
7116;SDS011;3600;48.568;7.870;2024-01-16T08:41:33;12.83;;;7.33;;
7116;SDS011;3600;48.568;7.870;2024-01-16T08:44:00;10.40;;;6.60;;
7116;SDS011;3600;48.568;7.870;2024-01-16T08:46:27;10.30;;;7.47;;
7116;SDS011;3600;48.568;7.870;2024-01-16T08:48:54;9.67;;;6.00;;
7116;SDS011;3600;48.568;7.870;2024-01-16T08:51:21;10.07;;;6.80;;
7116;SDS011;3600;48.568;7.870;2024-01-16T08:53:48;11.33;;;7.07;;
7116;SDS011;3600;48.568;7.870;2024-01-16T08:56:14;10.57;;;6.70;;
7116;SDS011;3600;48.568;7.870;2024-01-16T08:58:43;11.17;;;6.80;;
7116;SDS011;3600;48.568;7.870;2024-01-16T09:01:10;9.70;;;5.70;;
7116;SDS011;3600;48.568;7.870;2024-01-16T09:03:37;8.67;;;5.97;;
7116;SDS011;3600;48.568;7.870;2024-01-16T09:06:04;8.80;;;6.23;;
7116;SDS011;3600;48.568;7.870;2024-01-16T09:08:31;11.27;;;6.43;;
7116;SDS011;3600;48.568;7.870;2024-01-16T09:10:58;9.07;;;5.90;;
7116;SDS011;3600;48.568;7.870;2024-01-16T09:13:25;8.13;;;6.73;;
7116;SDS011;3600;48.568;7.870;2024-01-16T09:15:52;11.53;;;6.53;;
7116;SDS011;3600;48.568;7.870;2024-01-16T09:18:18;9.50;;;6.23;;
7116;SDS011;3600;48.568;7.870;2024-01-16T09:20:45;9.87;;;6.33;;
7116;SDS011;3600;48.568;7.870;2024-01-16T09:23:13;8.67;;;6.53;;
7116;SDS011;3600;48.568;7.870;2024-01-16T09:25:40;8.80;;;5.70;;
7116;SDS011;3600;48.568;7.870;2024-01-16T09:28:09;9.53;;;6.60;;
7116;SDS011;3600;48.568;7.870;2024-01-16T09:30:36;8.87;;;6.83;;
7116;SDS011;3600;48.568;7.870;2024-01-16T09:33:03;10.93;;;7.57;;
7116;SDS011;3600;48.568;7.870;2024-01-16T09:35:33;12.17;;;6.67;;
7116;SDS011;3600;48.568;7.870;2024-01-16T09:38:01;10.77;;;6.77;;
7116;SDS011;3600;48.568;7.870;2024-01-16T09:40:27;9.23;;;7.00;;
7116;SDS011;3600;48.568;7.870;2024-01-16T09:42:54;9.47;;;7.03;;
7116;SDS011;3600;48.568;7.870;2024-01-16T09:45:22;9.03;;;6.50;;
7116;SDS011;3600;48.568;7.870;2024-01-16T09:47:52;8.80;;;6.30;;
7116;SDS011;3600;48.568;7.870;2024-01-16T09:50:19;9.47;;;6.17;;
7116;SDS011;3600;48.568;7.870;2024-01-16T09:52:48;9.07;;;5.80;;
7116;SDS011;3600;48.568;7.870;2024-01-16T09:55:15;7.63;;;5.67;;
7116;SDS011;3600;48.568;7.870;2024-01-16T09:57:43;7.53;;;5.23;;
7116;SDS011;3600;48.568;7.870;2024-01-16T10:00:12;7.37;;;5.53;;
7116;SDS011;3600;48.568;7.870;2024-01-16T10:02:39;9.20;;;5.70;;
7116;SDS011;3600;48.568;7.870;2024-01-16T10:05:07;7.83;;;5.30;;
7116;SDS011;3600;48.568;7.870;2024-01-16T10:07:40;8.53;;;5.83;;
7116;SDS011;3600;48.568;7.870;2024-01-16T10:10:10;8.73;;;6.50;;
7116;SDS011;3600;48.568;7.870;2024-01-16T10:12:38;8.47;;;5.50;;
7116;SDS011;3600;48.568;7.870;2024-01-16T10:15:06;7.07;;;5.83;;
7116;SDS011;3600;48.568;7.870;2024-01-16T10:17:38;13.13;;;7.33;;
7116;SDS011;3600;48.568;7.870;2024-01-16T10:20:06;11.63;;;6.40;;
7116;SDS011;3600;48.568;7.870;2024-01-16T10:22:34;13.53;;;7.40;;
7116;SDS011;3600;48.568;7.870;2024-01-16T10:25:04;17.03;;;9.20;;
7116;SDS011;3600;48.568;7.870;2024-01-16T10:27:33;16.30;;;8.77;;
7116;SDS011;3600;48.568;7.870;2024-01-16T10:30:00;18.07;;;8.13;;
7116;SDS011;3600;48.568;7.870;2024-01-16T10:32:30;13.97;;;7.30;;
7116;SDS011;3600;48.568;7.870;2024-01-16T10:35:11;7.37;;;5.83;;
7116;SDS011;3600;48.568;7.870;2024-01-16T10:37:43;8.93;;;5.40;;
7116;SDS011;3600;48.568;7.870;2024-01-16T10:40:16;7.50;;;5.67;;
7116;SDS011;3600;48.568;7.870;2024-01-16T10:43:03;8.43;;;5.50;;
7116;SDS011;3600;48.568;7.870;2024-01-16T10:45:32;7.20;;;5.30;;
7116;SDS011;3600;48.568;7.870;2024-01-16T10:48:02;6.23;;;4.70;;
7116;SDS011;3600;48.568;7.870;2024-01-16T10:50:35;8.73;;;5.63;;
7116;SDS011;3600;48.568;7.870;2024-01-16T10:53:04;6.60;;;5.07;;
7116;SDS011;3600;48.568;7.870;2024-01-16T10:55:35;6.57;;;5.23;;
7116;SDS011;3600;48.568;7.870;2024-01-16T10:58:19;8.53;;;5.70;;
7116;SDS011;3600;48.568;7.870;2024-01-16T11:00:49;6.93;;;6.00;;
7116;SDS011;3600;48.568;7.870;2024-01-16T11:03:19;6.77;;;6.00;;
7116;SDS011;3600;48.568;7.870;2024-01-16T11:05:57;9.60;;;5.80;;
7116;SDS011;3600;48.568;7.870;2024-01-16T11:08:24;7.40;;;5.47;;
7116;SDS011;3600;48.568;7.870;2024-01-16T11:10:57;7.30;;;5.17;;
7116;SDS011;3600;48.568;7.870;2024-01-16T11:13:25;7.47;;;5.60;;
7116;SDS011;3600;48.568;7.870;2024-01-16T11:15:52;7.70;;;6.57;;
7116;SDS011;3600;48.568;7.870;2024-01-16T11:18:20;9.93;;;6.33;;
7116;SDS011;3600;48.568;7.870;2024-01-16T11:20:47;9.47;;;5.40;;
7116;SDS011;3600;48.568;7.870;2024-01-16T11:23:31;6.40;;;5.77;;
7116;SDS011;3600;48.568;7.870;2024-01-16T11:25:58;7.60;;;5.93;;
7116;SDS011;3600;48.568;7.870;2024-01-16T11:28:29;7.30;;;5.87;;
7116;SDS011;3600;48.568;7.870;2024-01-16T11:30:58;7.13;;;5.47;;
7116;SDS011;3600;48.568;7.870;2024-01-16T11:33:54;8.83;;;5.80;;
7116;SDS011;3600;48.568;7.870;2024-01-16T11:39:17;7.90;;;5.60;;
7116;SDS011;3600;48.568;7.870;2024-01-16T11:44:35;7.77;;;5.73;;
7116;SDS011;3600;48.568;7.870;2024-01-16T11:47:21;7.53;;;6.10;;
7116;SDS011;3600;48.568;7.870;2024-01-16T11:49:50;9.43;;;6.53;;
7116;SDS011;3600;48.568;7.870;2024-01-16T11:52:40;8.03;;;6.10;;
7116;SDS011;3600;48.568;7.870;2024-01-16T11:55:24;9.53;;;6.70;;
7116;SDS011;3600;48.568;7.870;2024-01-16T11:57:58;8.90;;;6.33;;
7116;SDS011;3600;48.568;7.870;2024-01-16T12:00:45;7.47;;;5.83;;
7116;SDS011;3600;48.568;7.870;2024-01-16T12:03:21;6.50;;;5.10;;
7116;SDS011;3600;48.568;7.870;2024-01-16T12:06:00;7.23;;;5.40;;
7116;SDS011;3600;48.568;7.870;2024-01-16T12:08:30;9.60;;;5.80;;
7116;SDS011;3600;48.568;7.870;2024-01-16T12:10:57;11.10;;;7.30;;
7116;SDS011;3600;48.568;7.870;2024-01-16T12:13:24;9.73;;;5.77;;
7116;SDS011;3600;48.568;7.870;2024-01-16T12:16:01;7.53;;;6.47;;
7116;SDS011;3600;48.568;7.870;2024-01-16T12:18:30;7.60;;;5.90;;
7116;SDS011;3600;48.568;7.870;2024-01-16T12:21:10;10.23;;;6.00;;
7116;SDS011;3600;48.568;7.870;2024-01-16T12:23:38;10.30;;;5.63;;
7116;SDS011;3600;48.568;7.870;2024-01-16T12:26:21;10.20;;;6.40;;
7116;SDS011;3600;48.568;7.870;2024-01-16T12:28:51;9.40;;;5.93;;
7116;SDS011;3600;48.568;7.870;2024-01-16T12:31:25;10.53;;;6.40;;
7116;SDS011;3600;48.568;7.870;2024-01-16T12:34:21;9.30;;;5.90;;
7116;SDS011;3600;48.568;7.870;2024-01-16T12:36:41;10.10;;;5.37;;
7116;SDS011;3600;48.568;7.870;2024-01-16T12:39:12;8.40;;;6.20;;
7116;SDS011;3600;48.568;7.870;2024-01-16T12:41:41;7.50;;;5.70;;
7116;SDS011;3600;48.568;7.870;2024-01-16T12:44:10;11.33;;;6.80;;
7116;SDS011;3600;48.568;7.870;2024-01-16T12:46:53;7.07;;;5.63;;
7116;SDS011;3600;48.568;7.870;2024-01-16T12:49:23;6.83;;;5.30;;
7116;SDS011;3600;48.568;7.870;2024-01-16T12:54:48;6.73;;;5.87;;
7116;SDS011;3600;48.568;7.870;2024-01-16T12:57:24;7.00;;;4.50;;
7116;SDS011;3600;48.568;7.870;2024-01-16T12:59:51;6.70;;;5.10;;
7116;SDS011;3600;48.568;7.870;2024-01-16T13:02:23;8.07;;;5.57;;
7116;SDS011;3600;48.568;7.870;2024-01-16T13:04:58;6.97;;;5.50;;
7116;SDS011;3600;48.568;7.870;2024-01-16T13:07:26;7.47;;;4.87;;
7116;SDS011;3600;48.568;7.870;2024-01-16T13:10:06;6.13;;;4.77;;
7116;SDS011;3600;48.568;7.870;2024-01-16T13:12:35;7.43;;;5.17;;
7116;SDS011;3600;48.568;7.870;2024-01-16T13:15:03;8.70;;;5.80;;
7116;SDS011;3600;48.568;7.870;2024-01-16T13:17:33;7.43;;;5.30;;
7116;SDS011;3600;48.568;7.870;2024-01-16T13:20:01;8.27;;;5.77;;
7116;SDS011;3600;48.568;7.870;2024-01-16T13:22:29;5.60;;;4.57;;
7116;SDS011;3600;48.568;7.870;2024-01-16T13:25:10;6.57;;;4.60;;
7116;SDS011;3600;48.568;7.870;2024-01-16T13:27:37;11.53;;;7.53;;
7116;SDS011;3600;48.568;7.870;2024-01-16T13:30:05;8.93;;;5.50;;
7116;SDS011;3600;48.568;7.870;2024-01-16T13:32:33;7.33;;;4.97;;
7116;SDS011;3600;48.568;7.870;2024-01-16T13:35:04;7.80;;;5.30;;
7116;SDS011;3600;48.568;7.870;2024-01-16T13:37:34;5.70;;;4.20;;
7116;SDS011;3600;48.568;7.870;2024-01-16T13:40:12;6.60;;;5.27;;
7116;SDS011;3600;48.568;7.870;2024-01-16T13:42:50;8.57;;;4.83;;
7116;SDS011;3600;48.568;7.870;2024-01-16T13:45:18;8.17;;;5.80;;
7116;SDS011;3600;48.568;7.870;2024-01-16T13:47:56;10.83;;;4.90;;
7116;SDS011;3600;48.568;7.870;2024-01-16T13:50:40;6.00;;;5.40;;
7116;SDS011;3600;48.568;7.870;2024-01-16T13:53:28;7.77;;;4.80;;
7116;SDS011;3600;48.568;7.870;2024-01-16T13:56:09;9.87;;;4.03;;
7116;SDS011;3600;48.568;7.870;2024-01-16T13:58:47;6.27;;;4.93;;
7116;SDS011;3600;48.568;7.870;2024-01-16T14:01:56;6.57;;;5.13;;
7116;SDS011;3600;48.568;7.870;2024-01-16T14:04:39;6.83;;;5.20;;
7116;SDS011;3600;48.568;7.870;2024-01-16T14:07:28;6.40;;;4.90;;
7116;SDS011;3600;48.568;7.870;2024-01-16T14:18:06;6.63;;;4.20;;
7116;SDS011;3600;48.568;7.870;2024-01-16T14:21:33;7.03;;;4.60;;
7116;SDS011;3600;48.568;7.870;2024-01-16T14:30:13;7.63;;;5.10;;
7116;SDS011;3600;48.568;7.870;2024-01-16T14:32:42;7.83;;;5.63;;
7116;SDS011;3600;48.568;7.870;2024-01-16T14:35:11;8.50;;;5.43;;
7116;SDS011;3600;48.568;7.870;2024-01-16T14:37:39;8.80;;;5.40;;
7116;SDS011;3600;48.568;7.870;2024-01-16T14:40:07;7.43;;;5.27;;
7116;SDS011;3600;48.568;7.870;2024-01-16T14:42:39;6.50;;;4.70;;
7116;SDS011;3600;48.568;7.870;2024-01-16T14:45:06;6.93;;;4.90;;
7116;SDS011;3600;48.568;7.870;2024-01-16T14:47:35;6.73;;;4.83;;
7116;SDS011;3600;48.568;7.870;2024-01-16T14:50:02;9.40;;;4.67;;
7116;SDS011;3600;48.568;7.870;2024-01-16T14:52:30;5.07;;;4.20;;
7116;SDS011;3600;48.568;7.870;2024-01-16T14:55:03;7.27;;;4.57;;
7116;SDS011;3600;48.568;7.870;2024-01-16T14:57:33;10.17;;;4.50;;
7116;SDS011;3600;48.568;7.870;2024-01-16T15:00:13;4.30;;;3.90;;
7116;SDS011;3600;48.568;7.870;2024-01-16T15:02:49;6.27;;;4.47;;
7116;SDS011;3600;48.568;7.870;2024-01-16T15:05:19;6.60;;;4.70;;
7116;SDS011;3600;48.568;7.870;2024-01-16T15:07:48;6.23;;;4.50;;
7116;SDS011;3600;48.568;7.870;2024-01-16T15:10:15;5.90;;;4.67;;
7116;SDS011;3600;48.568;7.870;2024-01-16T15:12:45;6.37;;;4.43;;
7116;SDS011;3600;48.568;7.870;2024-01-16T15:15:13;5.23;;;3.50;;
7116;SDS011;3600;48.568;7.870;2024-01-16T15:17:47;5.33;;;4.43;;
7116;SDS011;3600;48.568;7.870;2024-01-16T15:20:15;6.30;;;4.27;;
7116;SDS011;3600;48.568;7.870;2024-01-16T15:22:44;6.33;;;4.30;;
7116;SDS011;3600;48.568;7.870;2024-01-16T15:25:19;6.33;;;4.90;;
7116;SDS011;3600;48.568;7.870;2024-01-16T15:27:54;5.80;;;4.80;;
7116;SDS011;3600;48.568;7.870;2024-01-16T15:30:23;7.63;;;5.03;;
7116;SDS011;3600;48.568;7.870;2024-01-16T15:32:55;5.70;;;4.50;;
7116;SDS011;3600;48.568;7.870;2024-01-16T15:35:23;6.87;;;5.20;;
7116;SDS011;3600;48.568;7.870;2024-01-16T15:37:50;6.50;;;5.33;;
7116;SDS011;3600;48.568;7.870;2024-01-16T15:40:17;7.07;;;4.97;;
7116;SDS011;3600;48.568;7.870;2024-01-16T15:42:45;10.77;;;5.27;;
7116;SDS011;3600;48.568;7.870;2024-01-16T15:45:40;6.63;;;4.93;;